createdAt,value
2023-07-04T00:01:07.665Z,100.00
2023-07-04T00:03:35.479Z,100.00
2023-07-04T00:06:02.892Z,100.00
2023-07-04T00:08:31.250Z,100.00
2023-07-04T00:10:58.713Z,100.00
2023-07-04T00:13:27.133Z,100.00
2023-07-04T00:15:55.263Z,100.00
2023-07-04T00:18:23.775Z,100.00
2023-07-04T00:20:55.719Z,100.00
2023-07-04T00:23:29.002Z,100.00
2023-07-04T00:25:56.039Z,100.00
2023-07-04T00:28:24.802Z,100.00
2023-07-04T00:30:53.712Z,100.00
2023-07-04T00:33:22.852Z,100.00
2023-07-04T00:35:50.797Z,100.00
2023-07-04T00:38:20.698Z,100.00
2023-07-04T00:40:47.950Z,100.00
2023-07-04T00:43:14.771Z,100.00
2023-07-04T00:45:44.787Z,100.00
2023-07-04T00:48:16.455Z,100.00
2023-07-04T00:50:46.606Z,100.00
2023-07-04T00:53:16.463Z,100.00
2023-07-04T00:55:49.200Z,100.00
2023-07-04T00:58:16.786Z,100.00
2023-07-04T01:00:45.347Z,100.00
2023-07-04T01:03:15.951Z,100.00
2023-07-04T01:05:57.680Z,100.00
2023-07-04T01:08:33.281Z,100.00
2023-07-04T01:11:10.861Z,100.00
2023-07-04T01:13:38.984Z,100.00
2023-07-04T01:16:11.460Z,100.00
2023-07-04T01:18:40.984Z,100.00
2023-07-04T01:21:10.193Z,100.00
2023-07-04T01:24:00.862Z,100.00
2023-07-04T01:26:38.461Z,100.00
2023-07-04T01:29:11.749Z,100.00
2023-07-04T01:31:39.108Z,100.00
2023-07-04T01:34:06.554Z,100.00
2023-07-04T01:36:36.160Z,100.00
2023-07-04T01:39:03.723Z,100.00
2023-07-04T01:41:31.674Z,100.00
2023-07-04T01:44:05.751Z,100.00
2023-07-04T01:46:34.415Z,100.00
2023-07-04T01:49:02.389Z,100.00
2023-07-04T01:51:32.055Z,100.00
2023-07-04T01:53:58.864Z,100.00
2023-07-04T01:56:25.726Z,100.00
2023-07-04T01:58:52.546Z,100.00
2023-07-04T02:01:20.122Z,100.00
2023-07-04T02:03:46.958Z,100.00
2023-07-04T02:06:16.382Z,100.00
2023-07-04T02:08:43.167Z,100.00
2023-07-04T02:11:09.945Z,100.00
2023-07-04T02:13:36.726Z,100.00
2023-07-04T02:16:03.502Z,100.00
2023-07-04T02:18:31.067Z,100.00
2023-07-04T02:20:57.798Z,100.00
2023-07-04T02:23:24.613Z,100.00
2023-07-04T02:25:54.136Z,100.00
2023-07-04T02:28:20.879Z,100.00
2023-07-04T02:30:59.049Z,100.00
2023-07-04T02:33:27.707Z,100.00
2023-07-04T02:35:54.577Z,100.00
2023-07-04T02:38:22.596Z,100.00
2023-07-04T02:40:52.848Z,100.00
2023-07-04T02:43:20.345Z,100.00
2023-07-04T02:45:47.698Z,100.00
2023-07-04T02:48:16.031Z,100.00
2023-07-04T02:50:43.612Z,100.00
2023-07-04T02:53:11.346Z,100.00
2023-07-04T02:55:38.499Z,100.00
2023-07-04T02:58:06.967Z,100.00
2023-07-04T03:00:35.375Z,100.00
2023-07-04T03:03:04.006Z,100.00
2023-07-04T03:05:32.598Z,100.00
2023-07-04T03:07:59.347Z,100.00
2023-07-04T03:10:26.346Z,100.00
2023-07-04T03:12:53.908Z,100.00
2023-07-04T03:15:21.206Z,100.00
2023-07-04T03:17:51.089Z,100.00
2023-07-04T03:20:19.469Z,100.00
2023-07-04T03:22:50.088Z,100.00
2023-07-04T03:25:17.318Z,100.00
2023-07-04T03:27:47.483Z,100.00
2023-07-04T03:30:16.758Z,100.00
2023-07-04T03:32:45.933Z,100.00
2023-07-04T03:35:12.694Z,100.00
2023-07-04T03:37:42.478Z,100.00
2023-07-04T03:40:11.252Z,100.00
2023-07-04T03:42:40.236Z,100.00
2023-07-04T03:45:08.627Z,100.00
2023-07-04T03:47:35.568Z,100.00
2023-07-04T03:50:05.177Z,100.00
2023-07-04T03:52:32.009Z,100.00
2023-07-04T03:54:58.810Z,100.00
2023-07-04T03:57:25.748Z,100.00
2023-07-04T03:59:52.593Z,100.00
2023-07-04T04:02:19.333Z,100.00
2023-07-04T04:04:48.292Z,100.00
2023-07-04T04:07:16.078Z,100.00
2023-07-04T04:09:43.476Z,100.00
2023-07-04T04:12:11.141Z,100.00
2023-07-04T04:14:38.340Z,100.00
2023-07-04T04:17:06.115Z,100.00
2023-07-04T04:19:33.240Z,100.00
2023-07-04T04:21:59.922Z,100.00
2023-07-04T04:24:26.648Z,100.00
2023-07-04T04:26:53.366Z,100.00
2023-07-04T04:29:21.268Z,100.00
2023-07-04T04:31:48.476Z,100.00
2023-07-04T04:34:18.272Z,100.00
2023-07-04T04:36:45.987Z,100.00
2023-07-04T04:39:13.270Z,100.00
2023-07-04T04:41:40.314Z,100.00
2023-07-04T04:44:07.100Z,100.00
2023-07-04T04:46:34.519Z,100.00
2023-07-04T04:49:04.756Z,100.00
2023-07-04T04:51:34.563Z,100.00
2023-07-04T04:54:02.479Z,100.00
2023-07-04T04:56:29.996Z,100.00
2023-07-04T04:58:57.444Z,100.00
2023-07-04T05:01:26.274Z,100.00
2023-07-04T05:03:57.333Z,100.00
2023-07-04T05:06:27.334Z,100.00
2023-07-04T05:08:54.418Z,100.00
2023-07-04T05:11:21.953Z,100.00
2023-07-04T05:13:50.355Z,100.00
2023-07-04T05:16:19.867Z,100.00
2023-07-04T05:18:48.118Z,100.00
2023-07-04T05:21:21.158Z,100.00
2023-07-04T05:23:49.632Z,100.00
2023-07-04T05:26:25.385Z,100.00
2023-07-04T05:28:53.577Z,100.00
2023-07-04T05:31:23.882Z,100.00
2023-07-04T05:33:53.153Z,100.00
2023-07-04T05:36:21.478Z,100.00
2023-07-04T05:38:50.178Z,100.00
2023-07-04T05:41:19.772Z,100.00
2023-07-04T05:43:47.231Z,100.00
2023-07-04T05:46:15.719Z,100.00
2023-07-04T05:48:43.532Z,100.00
2023-07-04T05:51:12.872Z,100.00
2023-07-04T05:53:44.556Z,100.00
2023-07-04T05:56:18.624Z,100.00
2023-07-04T05:58:50.289Z,100.00
2023-07-04T06:01:26.969Z,100.00
2023-07-04T06:03:54.956Z,100.00
2023-07-04T06:06:32.053Z,100.00
2023-07-04T06:09:01.245Z,100.00
2023-07-04T06:11:32.618Z,100.00
2023-07-04T06:13:59.438Z,100.00
2023-07-04T06:16:26.275Z,100.00
2023-07-04T06:18:53.195Z,100.00
2023-07-04T06:21:34.084Z,100.00
2023-07-04T06:24:09.584Z,100.00
2023-07-04T06:26:36.387Z,100.00
2023-07-04T06:29:03.154Z,100.00
2023-07-04T06:31:30.144Z,100.00
2023-07-04T06:33:57.284Z,100.00
2023-07-04T06:36:24.489Z,100.00
2023-07-04T06:38:51.465Z,100.00
2023-07-04T06:41:18.816Z,100.00
2023-07-04T06:43:47.859Z,100.00
2023-07-04T06:46:18.040Z,100.00
2023-07-04T06:48:48.299Z,100.00
2023-07-04T06:51:18.051Z,100.00
2023-07-04T06:53:46.183Z,100.00
2023-07-04T06:56:18.836Z,100.00
2023-07-04T06:58:51.450Z,100.00
2023-07-04T07:01:20.816Z,100.00
2023-07-04T07:03:47.832Z,100.00
2023-07-04T07:06:14.797Z,100.00
2023-07-04T07:08:41.823Z,100.00
2023-07-04T07:11:11.823Z,100.00
2023-07-04T07:13:40.333Z,99.89
2023-07-04T07:16:07.168Z,98.46
2023-07-04T07:18:35.335Z,96.95
2023-07-04T07:21:03.938Z,92.80
2023-07-04T07:23:34.605Z,91.91
2023-07-04T07:26:03.492Z,89.94
2023-07-04T07:28:34.873Z,89.20
2023-07-04T07:31:14.122Z,88.84
2023-07-04T07:33:43.164Z,87.88
2023-07-04T07:36:16.906Z,88.00
2023-07-04T07:38:44.146Z,85.96
2023-07-04T07:41:11.481Z,81.36
2023-07-04T07:43:39.906Z,78.27
2023-07-04T07:46:11.596Z,76.51
2023-07-04T07:48:38.434Z,75.74
2023-07-04T07:51:07.730Z,75.03
2023-07-04T07:53:36.211Z,71.37
2023-07-04T07:56:04.941Z,67.68
2023-07-04T07:58:32.409Z,67.60
2023-07-04T08:00:59.213Z,65.80
2023-07-04T08:03:26.106Z,64.58
2023-07-04T08:05:52.859Z,59.80
2023-07-04T08:08:19.714Z,61.05
2023-07-04T08:10:46.433Z,61.96
2023-07-04T08:13:13.636Z,62.78
2023-07-04T08:15:40.390Z,63.51
2023-07-04T08:18:09.067Z,62.23
2023-07-04T08:20:36.141Z,60.19
2023-07-04T08:23:03.240Z,61.28
2023-07-04T08:25:29.945Z,61.52
2023-07-04T08:27:56.748Z,62.20
2023-07-04T08:30:23.796Z,59.28
2023-07-04T08:32:53.860Z,59.79
2023-07-04T08:35:20.663Z,58.48
2023-07-04T08:37:47.476Z,57.70
2023-07-04T08:40:16.763Z,55.81
2023-07-04T08:42:44.607Z,53.96
2023-07-04T08:45:21.696Z,56.08
2023-07-04T08:47:48.584Z,57.72
2023-07-04T08:50:28.458Z,58.20
2023-07-04T08:53:03.194Z,57.86
2023-07-04T08:55:36.057Z,58.68
2023-07-04T08:58:06.138Z,58.79
2023-07-04T09:00:36.896Z,57.97
2023-07-04T09:03:22.001Z,55.92
2023-07-04T09:05:54.937Z,53.67
2023-07-04T09:08:46.485Z,50.11
2023-07-04T09:11:14.492Z,47.79
2023-07-04T09:13:44.175Z,47.40
2023-07-04T09:16:13.910Z,47.23
2023-07-04T09:19:00.822Z,46.14
2023-07-04T09:21:29.472Z,45.45
2023-07-04T09:23:59.809Z,46.14
2023-07-04T09:26:44.062Z,45.95
2023-07-04T09:29:11.533Z,44.43
2023-07-04T09:31:41.943Z,44.34
2023-07-04T09:34:22.664Z,43.95
2023-07-04T09:36:52.432Z,43.44
2023-07-04T09:39:19.170Z,42.16
2023-07-04T09:42:18.406Z,42.00
2023-07-04T09:44:46.670Z,42.01
2023-07-04T09:47:33.485Z,44.08
2023-07-04T09:50:11.356Z,44.08
2023-07-04T09:52:39.592Z,43.75
2023-07-04T09:55:27.436Z,43.26
2023-07-04T09:57:54.431Z,44.04
2023-07-04T10:00:24.567Z,44.93
2023-07-04T10:02:58.205Z,44.66
2023-07-04T10:05:30.288Z,46.18
2023-07-04T10:08:08.734Z,45.73
2023-07-04T10:10:54.127Z,44.67
2023-07-04T10:13:25.534Z,42.47
2023-07-04T10:15:52.723Z,42.05
2023-07-04T10:18:32.115Z,40.66
2023-07-04T10:21:00.769Z,40.91
2023-07-04T10:23:29.764Z,40.58
2023-07-04T10:25:59.051Z,40.54
2023-07-04T10:28:27.788Z,39.75
2023-07-04T10:31:07.334Z,39.38
2023-07-04T10:33:46.853Z,41.08
2023-07-04T10:36:17.520Z,41.13
2023-07-04T10:38:48.167Z,37.78
2023-07-04T10:41:27.107Z,39.65
2023-07-04T10:44:02.631Z,40.20
2023-07-04T10:46:32.025Z,39.90
2023-07-04T10:49:10.336Z,40.58
2023-07-04T10:51:41.456Z,39.72
2023-07-04T10:54:12.907Z,38.37
2023-07-04T10:56:41.812Z,37.83
2023-07-04T10:59:20.432Z,38.79
2023-07-04T11:01:56.076Z,38.84
2023-07-04T11:04:34.412Z,38.83
2023-07-04T11:07:05.304Z,37.76
2023-07-04T11:09:39.102Z,37.64
2023-07-04T11:12:08.675Z,37.16
2023-07-04T11:14:39.394Z,38.95
2023-07-04T11:17:17.995Z,40.92
2023-07-04T11:20:12.832Z,40.64
2023-07-04T11:22:58.531Z,39.73
2023-07-04T11:25:33.425Z,38.98
2023-07-04T11:28:35.500Z,37.34
2023-07-04T11:31:12.943Z,36.57
2023-07-04T11:33:53.879Z,37.38
2023-07-04T11:36:30.944Z,35.67
2023-07-04T11:39:05.875Z,36.29
2023-07-04T11:41:44.009Z,36.88
2023-07-04T11:44:24.930Z,34.53
2023-07-04T11:47:04.980Z,34.07
2023-07-04T11:49:33.827Z,33.45
2023-07-04T11:52:17.894Z,34.40
2023-07-04T11:54:46.217Z,33.90
2023-07-04T11:57:16.752Z,34.35
2023-07-04T11:59:45.289Z,34.04
2023-07-04T12:02:32.693Z,34.63
2023-07-04T12:05:02.149Z,35.55
2023-07-04T12:07:48.588Z,34.41
2023-07-04T12:10:20.858Z,32.66
2023-07-04T12:12:58.389Z,33.71
2023-07-04T12:15:37.077Z,32.95
2023-07-04T12:18:27.807Z,34.22
2023-07-04T12:20:55.719Z,36.32
2023-07-04T12:23:22.874Z,36.57
2023-07-04T12:25:52.510Z,35.05
2023-07-04T12:28:24.664Z,34.05
2023-07-04T12:30:59.858Z,34.34
2023-07-04T12:33:46.199Z,34.30
2023-07-04T12:36:16.792Z,34.71
2023-07-04T12:38:49.589Z,35.93
2023-07-04T12:41:22.273Z,35.38
2023-07-04T12:51:31.311Z,36.14
2023-07-04T12:54:02.273Z,36.29
2023-07-04T12:56:30.809Z,36.55
2023-07-04T12:58:57.869Z,36.00
2023-07-04T13:01:36.219Z,35.17
2023-07-04T13:04:11.390Z,35.31
2023-07-04T13:06:38.393Z,34.29
2023-07-04T13:09:06.998Z,33.80
2023-07-04T13:11:34.840Z,33.40
2023-07-04T13:14:10.230Z,33.96
2023-07-04T13:16:39.703Z,32.74
2023-07-04T13:19:06.641Z,32.12
2023-07-04T13:21:39.503Z,32.64
2023-07-04T13:26:43.531Z,33.02
2023-07-04T13:34:25.059Z,32.91
2023-07-04T13:37:03.533Z,32.93
2023-07-04T13:42:01.611Z,33.05
2023-07-04T13:46:57.999Z,34.82
2023-07-04T13:49:25.087Z,35.11
2023-07-04T13:51:52.187Z,35.97
2023-07-04T13:54:19.298Z,36.88
2023-07-04T13:56:46.018Z,36.21
2023-07-04T13:59:12.860Z,36.47
2023-07-04T14:06:39.709Z,36.50
2023-07-04T14:09:06.718Z,36.57
2023-07-04T14:11:33.471Z,35.89
2023-07-04T14:14:04.358Z,35.75
2023-07-04T14:19:58.826Z,38.52
2023-07-04T14:21:50.721Z,39.40
2023-07-04T14:24:17.652Z,39.33
2023-07-04T14:26:46.144Z,39.92
2023-07-04T14:29:12.839Z,40.38
2023-07-04T14:31:39.723Z,40.43
2023-07-04T14:34:06.538Z,41.49
2023-07-04T14:36:33.315Z,40.54
2023-07-04T14:39:01.711Z,39.87
2023-07-04T14:44:00.519Z,38.28
2023-07-04T14:46:27.308Z,38.53
2023-07-04T14:48:54.049Z,38.48
2023-07-04T14:51:20.940Z,38.28
2023-07-04T14:53:47.695Z,38.00
2023-07-04T14:56:16.814Z,38.12
2023-07-04T14:58:44.490Z,37.74
2023-07-04T15:01:21.253Z,38.24
2023-07-04T15:03:48.345Z,37.92
2023-07-04T15:06:15.685Z,38.35
2023-07-04T15:08:42.452Z,38.25
2023-07-04T15:11:09.252Z,38.05
2023-07-04T15:13:36.042Z,38.10
2023-07-04T15:16:05.971Z,38.41
2023-07-04T15:18:35.128Z,38.35
2023-07-04T15:21:02.254Z,38.36
2023-07-04T15:23:30.399Z,38.52
2023-07-04T15:26:15.420Z,39.13
2023-07-04T15:28:49.173Z,39.00
2023-07-04T15:31:16.581Z,38.99
2023-07-04T15:33:43.678Z,39.08
2023-07-04T15:36:11.054Z,39.23
2023-07-04T15:38:38.155Z,39.66
2023-07-04T15:41:09.095Z,39.08
2023-07-04T15:43:37.294Z,39.05
2023-07-04T15:46:12.024Z,38.42
2023-07-04T15:48:40.108Z,39.37
2023-07-04T15:51:08.189Z,39.28
2023-07-04T15:53:35.325Z,39.45
2023-07-04T15:56:07.468Z,40.03
2023-07-04T15:58:34.240Z,39.46
2023-07-04T16:01:02.682Z,40.02
2023-07-04T16:03:31.778Z,40.00
2023-07-04T16:05:59.289Z,40.48
2023-07-04T16:08:27.320Z,40.67
2023-07-04T16:10:59.709Z,40.50
2023-07-04T16:13:26.774Z,40.24
2023-07-04T16:15:54.243Z,40.22
2023-07-04T16:18:21.914Z,40.45
2023-07-04T16:20:48.948Z,40.55
2023-07-04T16:23:15.963Z,40.35
2023-07-04T16:25:44.289Z,40.79
2023-07-04T16:28:12.381Z,40.69
2023-07-04T16:30:40.538Z,40.57
2023-07-04T16:33:07.392Z,41.30
2023-07-04T16:35:34.145Z,41.45
2023-07-04T16:38:00.893Z,41.15
2023-07-04T16:40:27.639Z,41.22
2023-07-04T16:42:54.377Z,41.10
2023-07-04T16:45:21.090Z,41.04
2023-07-04T16:47:47.855Z,41.81
2023-07-04T16:50:30.062Z,41.44
2023-07-04T16:52:59.320Z,41.64
2023-07-04T16:55:26.333Z,41.86
2023-07-04T16:57:53.093Z,42.01
2023-07-04T17:00:20.041Z,42.23
2023-07-04T17:02:47.480Z,42.92
2023-07-04T17:05:14.289Z,43.62
2023-07-04T17:07:41.180Z,43.82
2023-07-04T17:10:08.884Z,43.95
2023-07-04T17:12:35.901Z,44.04
2023-07-04T17:15:02.792Z,44.34
2023-07-04T17:17:29.543Z,45.01
2023-07-04T17:19:56.316Z,45.09
2023-07-04T17:22:23.112Z,45.15
2023-07-04T17:24:59.524Z,45.46
2023-07-04T17:27:34.300Z,45.78
2023-07-04T17:30:01.184Z,45.59
2023-07-04T17:32:27.900Z,45.84
2023-07-04T17:34:54.696Z,46.32
2023-07-04T17:37:21.462Z,46.12
2023-07-04T17:39:48.262Z,46.73
2023-07-04T17:42:14.991Z,47.65
2023-07-04T17:44:41.698Z,47.43
2023-07-04T17:47:08.562Z,47.47
2023-07-04T17:49:35.291Z,48.03
2023-07-04T17:52:02.604Z,49.10
2023-07-04T17:54:29.341Z,48.22
2023-07-04T17:56:56.107Z,49.03
2023-07-04T17:59:22.891Z,49.45
2023-07-04T18:01:49.730Z,49.94
2023-07-04T18:04:16.588Z,50.73
2023-07-04T18:06:43.439Z,50.17
2023-07-04T18:09:10.266Z,49.89
2023-07-04T18:11:38.032Z,50.11
2023-07-04T18:14:05.002Z,50.00
2023-07-04T18:16:33.687Z,49.45
2023-07-04T18:19:00.639Z,50.38
2023-07-04T18:21:28.475Z,50.61
2023-07-04T18:24:00.787Z,50.06
2023-07-04T18:26:28.169Z,50.19
2023-07-04T18:28:55.412Z,50.48
2023-07-04T18:31:28.630Z,50.65
2023-07-04T18:34:00.784Z,51.12
2023-07-04T18:36:30.533Z,52.15
2023-07-04T18:38:57.344Z,52.52
2023-07-04T18:41:30.307Z,52.48
2023-07-04T18:43:57.164Z,52.68
2023-07-04T18:46:29.132Z,53.24
2023-07-04T18:48:56.184Z,54.04
2023-07-04T18:51:26.207Z,54.34
2023-07-04T18:53:55.658Z,54.53
2023-07-04T18:56:22.925Z,54.87
2023-07-04T18:58:53.193Z,55.51
2023-07-04T19:01:23.157Z,55.81
2023-07-04T19:03:51.647Z,56.34
2023-07-04T19:06:22.889Z,56.51
2023-07-04T19:08:50.742Z,56.87
2023-07-04T19:11:23.853Z,56.97
2023-07-04T19:14:22.105Z,57.88
2023-07-04T19:16:51.773Z,57.55
2023-07-04T19:19:21.305Z,58.45
2023-07-04T19:21:53.491Z,60.07
2023-07-04T19:24:21.772Z,60.49
2023-07-04T19:26:48.613Z,61.09
2023-07-04T19:29:15.798Z,61.08
2023-07-04T19:31:44.407Z,61.06
2023-07-04T19:34:17.976Z,61.25
2023-07-04T19:36:45.433Z,62.18
2023-07-04T19:39:12.733Z,62.28
2023-07-04T19:41:39.470Z,62.41
2023-07-04T19:44:06.383Z,62.44
2023-07-04T19:46:33.370Z,62.55
2023-07-04T19:49:00.285Z,62.78
2023-07-04T19:51:27.087Z,63.40
2023-07-04T19:53:55.616Z,63.72
2023-07-04T19:56:25.238Z,64.14
2023-07-04T19:58:53.148Z,64.28
2023-07-04T20:01:25.206Z,64.07
2023-07-04T20:03:53.783Z,64.44
2023-07-04T20:06:21.791Z,64.85
2023-07-04T20:08:50.713Z,65.90
2023-07-04T20:11:18.629Z,65.12
2023-07-04T20:13:45.582Z,65.28
2023-07-04T20:16:20.839Z,65.26
2023-07-04T20:18:47.766Z,64.90
2023-07-04T20:21:15.140Z,64.79
2023-07-04T20:23:42.346Z,64.45
2023-07-04T20:26:11.206Z,63.50
2023-07-04T20:28:38.431Z,62.24
2023-07-04T20:31:05.757Z,61.78
2023-07-04T20:33:34.700Z,61.76
2023-07-04T20:36:02.196Z,61.10
2023-07-04T20:38:29.190Z,61.04
2023-07-04T20:41:02.704Z,60.42
2023-07-04T20:43:29.465Z,60.03
2023-07-04T20:45:56.655Z,61.79
2023-07-04T20:48:23.823Z,63.19
2023-07-04T20:50:51.438Z,64.72
2023-07-04T20:53:18.822Z,65.98
2023-07-04T20:55:49.668Z,67.15
2023-07-04T20:58:18.174Z,68.16
2023-07-04T21:00:45.434Z,68.74
2023-07-04T21:03:12.373Z,69.42
2023-07-04T21:05:40.866Z,69.39
2023-07-04T21:08:08.413Z,69.66
2023-07-04T21:10:39.376Z,70.12
2023-07-04T21:13:17.875Z,71.08
2023-07-04T21:15:45.800Z,71.87
2023-07-04T21:18:13.068Z,71.52
2023-07-04T21:20:39.858Z,71.57
2023-07-04T21:23:06.916Z,71.81
2023-07-04T21:25:33.797Z,71.42
2023-07-04T21:28:00.676Z,72.12
2023-07-04T21:30:27.437Z,72.51
2023-07-04T21:32:54.300Z,73.28
2023-07-04T21:35:21.120Z,73.80
2023-07-04T21:37:48.600Z,74.89
2023-07-04T21:40:15.344Z,75.13
2023-07-04T21:42:42.108Z,75.62
2023-07-04T21:45:09.314Z,75.13
2023-07-04T21:47:36.139Z,74.68
2023-07-04T21:50:03.888Z,74.49
2023-07-04T21:52:30.729Z,74.69
2023-07-04T21:54:57.486Z,75.15
2023-07-04T21:57:24.222Z,76.27
2023-07-04T21:59:51.086Z,77.29
2023-07-04T22:02:18.532Z,77.34
2023-07-04T22:04:45.566Z,77.24
2023-07-04T22:07:12.298Z,78.03
2023-07-04T22:09:39.174Z,78.72
2023-07-04T22:12:06.134Z,78.87
2023-07-04T22:14:38.345Z,78.58
2023-07-04T22:17:06.831Z,79.11
2023-07-04T22:19:33.896Z,79.24
2023-07-04T22:22:00.709Z,78.56
2023-07-04T22:24:28.735Z,77.65
2023-07-04T22:26:56.049Z,77.40
2023-07-04T22:29:22.831Z,76.12
2023-07-04T22:31:49.753Z,75.85
2023-07-04T22:34:16.458Z,75.80
2023-07-04T22:36:43.476Z,75.63
2023-07-04T22:39:10.248Z,75.40
2023-07-04T22:41:37.208Z,75.38
2023-07-04T22:44:04.336Z,76.68
2023-07-04T22:46:31.588Z,79.10
2023-07-04T22:48:59.213Z,80.57
2023-07-04T22:51:26.012Z,85.03
2023-07-04T22:53:53.133Z,87.18
2023-07-04T22:56:20.560Z,92.57
2023-07-04T22:58:47.762Z,99.05
2023-07-04T23:01:20.476Z,99.66
2023-07-04T23:03:49.142Z,100.00
2023-07-04T23:06:16.648Z,99.62
2023-07-04T23:08:44.731Z,100.00
2023-07-04T23:11:11.948Z,100.00
2023-07-04T23:13:39.006Z,100.00
2023-07-04T23:16:07.654Z,100.00
2023-07-04T23:18:34.906Z,100.00
2023-07-04T23:21:01.761Z,100.00
2023-07-04T23:23:29.331Z,100.00
2023-07-04T23:25:59.066Z,100.00
2023-07-04T23:28:26.242Z,100.00
2023-07-04T23:30:53.128Z,100.00
2023-07-04T23:33:19.998Z,100.00
2023-07-04T23:35:56.917Z,100.00
2023-07-04T23:38:23.812Z,100.00
2023-07-04T23:40:51.392Z,100.00
2023-07-04T23:43:18.870Z,100.00
2023-07-04T23:45:46.133Z,100.00
2023-07-04T23:48:13.412Z,100.00
2023-07-04T23:50:41.483Z,100.00
2023-07-04T23:53:08.253Z,100.00
2023-07-04T23:55:35.315Z,100.00
2023-07-04T23:58:02.100Z,100.00
